createdAt,value
2019-02-17T00:00:26.803Z,883.00
2019-02-17T00:01:26.953Z,883.00
2019-02-17T00:02:27.620Z,883.00
2019-02-17T00:02:37.025Z,876.00
2019-02-17T00:03:38.230Z,883.00
2019-02-17T00:04:38.855Z,884.00
2019-02-17T00:05:39.614Z,884.00
2019-02-17T00:06:40.316Z,883.00
2019-02-17T00:07:40.953Z,873.00
2019-02-17T00:08:41.520Z,873.00
2019-02-17T00:09:42.106Z,883.00
2019-02-17T00:10:43.026Z,883.00
2019-02-17T00:11:43.925Z,883.00
2019-02-17T00:12:44.876Z,883.00
2019-02-17T00:13:45.525Z,884.00
2019-02-17T00:14:46.149Z,885.00
2019-02-17T00:15:47.128Z,888.00
2019-02-17T00:16:47.819Z,888.00
2019-02-17T00:17:48.454Z,886.00
2019-02-17T00:18:49.313Z,885.00
2019-02-17T00:19:49.474Z,885.00
2019-02-17T00:20:50.239Z,885.00
2019-02-17T00:21:51.154Z,885.00
2019-02-17T00:22:51.818Z,886.00
2019-02-17T00:23:52.125Z,885.00
2019-02-17T00:24:52.840Z,884.00
2019-02-17T00:25:53.714Z,884.00
2019-02-17T00:26:53.741Z,884.00
2019-02-17T00:27:54.464Z,884.00
2019-02-17T00:28:59.384Z,884.00
2019-02-17T00:29:54.992Z,884.00
2019-02-17T00:30:56.576Z,884.00
2019-02-17T00:31:57.302Z,885.00
2019-02-17T00:32:58.018Z,886.00
2019-02-17T00:33:58.651Z,886.00
2019-02-17T00:34:59.558Z,885.00
2019-02-17T00:36:00.198Z,885.00
2019-02-17T00:37:00.921Z,885.00
2019-02-17T00:38:01.590Z,884.00
2019-02-17T00:39:02.356Z,884.00
2019-02-17T00:40:03.014Z,884.00
2019-02-17T00:41:03.690Z,885.00
2019-02-17T00:42:04.512Z,885.00
2019-02-17T00:43:05.168Z,885.00
2019-02-17T00:44:06.090Z,884.00
2019-02-17T00:45:06.716Z,885.00
2019-02-17T00:46:07.389Z,884.00
2019-02-17T00:47:08.335Z,884.00
2019-02-17T00:48:08.917Z,885.00
2019-02-17T00:48:18.935Z,876.00
2019-02-17T00:49:20.292Z,884.00
2019-02-17T00:50:21.236Z,884.00
2019-02-17T00:51:21.877Z,884.00
2019-02-17T00:52:22.437Z,883.00
2019-02-17T00:53:22.977Z,884.00
2019-02-17T00:54:23.728Z,883.00
2019-02-17T00:55:24.485Z,883.00
2019-02-17T00:56:25.368Z,883.00
2019-02-17T00:57:26.053Z,884.00
2019-02-17T00:58:26.698Z,884.00
2019-02-17T00:59:27.435Z,884.00
2019-02-17T01:00:28.047Z,884.00
2019-02-17T01:01:28.769Z,885.00
2019-02-17T01:02:29.336Z,886.00
2019-02-17T01:03:29.996Z,886.00
2019-02-17T01:04:30.687Z,885.00
2019-02-17T01:05:31.408Z,885.00
2019-02-17T01:06:32.189Z,885.00
2019-02-17T01:07:32.844Z,885.00
2019-02-17T01:08:33.400Z,885.00
2019-02-17T01:09:34.137Z,885.00
2019-02-17T01:10:34.782Z,885.00
2019-02-17T01:11:35.423Z,884.00
2019-02-17T01:12:35.955Z,884.00
2019-02-17T01:13:36.722Z,884.00
2019-02-17T01:14:37.537Z,884.00
2019-02-17T01:15:38.100Z,884.00
2019-02-17T01:16:38.751Z,884.00
2019-02-17T01:17:38.544Z,884.00
2019-02-17T01:18:40.031Z,884.00
2019-02-17T01:19:40.834Z,885.00
2019-02-17T01:20:40.520Z,886.00
2019-02-17T01:21:42.153Z,888.00
2019-02-17T01:22:42.783Z,886.00
2019-02-17T01:23:43.439Z,886.00
2019-02-17T01:24:44.126Z,885.00
2019-02-17T01:25:44.978Z,885.00
2019-02-17T01:26:45.745Z,876.00
2019-02-17T01:27:46.291Z,885.00
2019-02-17T01:28:47.116Z,885.00
2019-02-17T01:29:47.300Z,886.00
2019-02-17T01:30:48.216Z,886.00
2019-02-17T01:31:49.021Z,885.00
2019-02-17T01:32:49.729Z,885.00
2019-02-17T01:33:50.265Z,886.00
2019-02-17T01:34:50.802Z,886.00
2019-02-17T01:35:01.819Z,879.00
2019-02-17T01:36:03.289Z,885.00
2019-02-17T01:37:03.836Z,885.00
2019-02-17T01:38:04.653Z,885.00
2019-02-17T01:39:05.380Z,886.00
2019-02-17T01:40:06.010Z,886.00
2019-02-17T01:41:06.778Z,885.00
2019-02-17T01:42:07.477Z,886.00
2019-02-17T01:43:08.067Z,885.00
2019-02-17T01:44:08.857Z,885.00
2019-02-17T01:45:09.408Z,885.00
2019-02-17T01:46:10.028Z,885.00
2019-02-17T01:47:10.657Z,885.00
2019-02-17T01:48:11.228Z,885.00
2019-02-17T01:49:11.928Z,885.00
2019-02-17T01:50:12.676Z,885.00
2019-02-17T01:51:12.493Z,885.00
2019-02-17T01:52:14.068Z,885.00
2019-02-17T01:53:14.811Z,885.00
2019-02-17T01:54:15.801Z,886.00
2019-02-17T01:55:15.812Z,888.00
2019-02-17T01:56:16.518Z,886.00
2019-02-17T01:57:17.287Z,886.00
2019-02-17T01:58:17.935Z,886.00
2019-02-17T01:59:18.519Z,886.00
2019-02-17T02:00:19.207Z,885.00
2019-02-17T02:01:19.756Z,885.00
2019-02-17T02:02:20.697Z,885.00
2019-02-17T02:03:21.266Z,885.00
2019-02-17T02:04:21.949Z,885.00
2019-02-17T02:05:22.836Z,885.00
2019-02-17T02:06:23.509Z,885.00
2019-02-17T02:07:24.112Z,886.00
2019-02-17T02:08:24.672Z,886.00
2019-02-17T02:09:25.512Z,885.00
2019-02-17T02:10:25.032Z,886.00
2019-02-17T02:11:26.610Z,885.00
2019-02-17T02:12:27.364Z,885.00
2019-02-17T02:13:28.313Z,885.00
2019-02-17T02:14:29.016Z,885.00
2019-02-17T02:15:29.691Z,886.00
2019-02-17T02:16:30.526Z,886.00
2019-02-17T02:17:31.273Z,888.00
2019-02-17T02:18:32.126Z,889.00
2019-02-17T02:19:32.939Z,889.00
2019-02-17T02:20:33.514Z,889.00
2019-02-17T02:20:44.079Z,889.00
2019-02-17T02:21:45.618Z,888.00
2019-02-17T02:22:46.392Z,888.00
2019-02-17T02:23:46.435Z,889.00
2019-02-17T02:24:47.002Z,888.00
2019-02-17T02:25:47.643Z,888.00
2019-02-17T02:26:48.580Z,888.00
2019-02-17T02:27:49.348Z,888.00
2019-02-17T02:28:50.179Z,888.00
2019-02-17T02:29:50.975Z,888.00
2019-02-17T02:30:51.709Z,886.00
2019-02-17T02:31:52.398Z,888.00
2019-02-17T02:32:53.197Z,889.00
2019-02-17T02:33:53.799Z,889.00
2019-02-17T02:34:54.644Z,888.00
2019-02-17T02:35:55.239Z,889.00
2019-02-17T02:36:55.854Z,888.00
2019-02-17T02:37:56.710Z,888.00
2019-02-17T02:38:57.591Z,888.00
2019-02-17T02:39:58.338Z,886.00
2019-02-17T02:40:59.262Z,888.00
2019-02-17T02:41:59.237Z,886.00
2019-02-17T02:43:00.198Z,888.00
2019-02-17T02:44:01.054Z,886.00
2019-02-17T02:45:02.001Z,878.00
2019-02-17T02:46:01.539Z,878.00
2019-02-17T02:47:03.483Z,878.00
2019-02-17T02:48:03.228Z,879.00
2019-02-17T02:49:04.835Z,886.00
2019-02-17T02:50:04.638Z,886.00
2019-02-17T02:51:06.286Z,886.00
2019-02-17T02:52:06.923Z,888.00
2019-02-17T02:53:07.570Z,886.00
2019-02-17T02:54:08.117Z,888.00
2019-02-17T02:55:08.880Z,888.00
2019-02-17T02:56:09.768Z,886.00
2019-02-17T02:57:10.434Z,888.00
2019-02-17T02:58:11.043Z,886.00
2019-02-17T02:59:11.629Z,888.00
2019-02-17T03:00:12.601Z,888.00
2019-02-17T03:01:13.563Z,889.00
2019-02-17T03:02:14.203Z,888.00
2019-02-17T03:03:13.767Z,888.00
2019-02-17T03:04:15.413Z,888.00
2019-02-17T03:05:15.994Z,888.00
2019-02-17T03:06:16.628Z,888.00
2019-02-17T03:07:17.223Z,888.00
2019-02-17T03:08:18.048Z,888.00
2019-02-17T03:08:27.079Z,888.00
2019-02-17T03:09:27.724Z,888.00
2019-02-17T03:10:29.361Z,886.00
2019-02-17T03:11:29.410Z,886.00
2019-02-17T03:12:30.196Z,886.00
2019-02-17T03:13:30.789Z,888.00
2019-02-17T03:14:31.547Z,886.00
2019-02-17T03:15:32.173Z,888.00
2019-02-17T03:16:32.770Z,888.00
2019-02-17T03:17:33.411Z,888.00
2019-02-17T03:18:34.062Z,888.00
2019-02-17T03:19:34.629Z,888.00
2019-02-17T03:20:35.446Z,888.00
2019-02-17T03:21:35.596Z,886.00
2019-02-17T03:22:36.150Z,886.00
2019-02-17T03:23:36.774Z,888.00
2019-02-17T03:24:37.460Z,888.00
2019-02-17T03:25:38.080Z,880.00
2019-02-17T03:26:38.802Z,879.00
2019-02-17T03:27:39.460Z,879.00
2019-02-17T03:28:40.298Z,888.00
2019-02-17T03:29:40.837Z,888.00
2019-02-17T03:30:41.490Z,888.00
2019-02-17T03:31:42.297Z,888.00
2019-02-17T03:32:43.125Z,889.00
2019-02-17T03:33:43.897Z,889.00
2019-02-17T03:34:44.512Z,889.00
2019-02-17T03:35:44.668Z,889.00
2019-02-17T03:36:44.187Z,889.00
2019-02-17T03:37:45.775Z,888.00
2019-02-17T03:38:46.570Z,888.00
2019-02-17T03:39:47.190Z,888.00
2019-02-17T03:40:47.887Z,888.00
2019-02-17T03:41:47.564Z,888.00
2019-02-17T03:42:49.203Z,888.00
2019-02-17T03:43:49.775Z,888.00
2019-02-17T03:44:50.464Z,888.00
2019-02-17T03:45:51.037Z,890.00
2019-02-17T03:46:52.060Z,890.00
2019-02-17T03:47:52.698Z,889.00
2019-02-17T03:48:52.958Z,890.00
2019-02-17T03:49:53.592Z,889.00
2019-02-17T03:50:54.264Z,889.00
2019-02-17T03:51:54.479Z,888.00
2019-02-17T03:52:55.077Z,888.00
2019-02-17T03:53:55.751Z,889.00
2019-02-17T03:54:56.488Z,889.00
2019-02-17T03:55:05.545Z,889.00
2019-02-17T03:56:06.879Z,889.00
2019-02-17T03:57:07.481Z,888.00
2019-02-17T03:58:08.048Z,888.00
2019-02-17T03:59:08.777Z,888.00
2019-02-17T04:00:16.984Z,888.00
2019-02-17T04:01:09.178Z,888.00
2019-02-17T04:02:11.050Z,888.00
2019-02-17T04:03:11.720Z,889.00
2019-02-17T04:04:11.397Z,889.00
2019-02-17T04:05:13.228Z,889.00
2019-02-17T04:06:12.281Z,879.00
2019-02-17T04:07:14.243Z,888.00
2019-02-17T04:08:14.323Z,888.00
2019-02-17T04:09:14.896Z,889.00
2019-02-17T04:10:15.626Z,889.00
2019-02-17T04:11:16.545Z,888.00
2019-02-17T04:12:17.029Z,888.00
2019-02-17T04:13:17.540Z,888.00
2019-02-17T04:14:18.047Z,888.00
2019-02-17T04:15:18.692Z,888.00
2019-02-17T04:16:19.377Z,889.00
2019-02-17T04:17:19.837Z,889.00
2019-02-17T04:18:20.495Z,889.00
2019-02-17T04:19:21.150Z,891.00
2019-02-17T04:20:21.591Z,890.00
2019-02-17T04:21:22.422Z,890.00
2019-02-17T04:22:23.086Z,890.00
2019-02-17T04:23:31.287Z,890.00
2019-02-17T04:24:23.467Z,890.00
2019-02-17T04:25:24.621Z,889.00
2019-02-17T04:26:25.227Z,889.00
2019-02-17T04:27:26.178Z,889.00
2019-02-17T04:28:26.867Z,889.00
2019-02-17T04:29:27.475Z,889.00
2019-02-17T04:30:29.628Z,889.00
2019-02-17T04:31:27.661Z,889.00
2019-02-17T04:32:29.186Z,889.00
2019-02-17T04:33:29.944Z,880.00
2019-02-17T04:34:30.538Z,892.00
2019-02-17T04:35:31.291Z,894.00
2019-02-17T04:36:32.037Z,893.00
2019-02-17T04:37:32.835Z,893.00
2019-02-17T04:38:33.409Z,892.00
2019-02-17T04:39:34.257Z,890.00
2019-02-17T04:40:34.861Z,890.00
2019-02-17T04:41:35.683Z,890.00
2019-02-17T04:42:36.353Z,890.00
2019-02-17T04:43:36.643Z,889.00
2019-02-17T04:43:45.669Z,889.00
2019-02-17T04:44:47.544Z,889.00
2019-02-17T04:45:48.392Z,889.00
2019-02-17T04:46:48.855Z,889.00
2019-02-17T04:47:49.500Z,889.00
2019-02-17T04:48:50.114Z,890.00
2019-02-17T04:49:50.710Z,893.00
2019-02-17T04:50:51.323Z,894.00
2019-02-17T04:51:51.956Z,892.00
2019-02-17T04:52:52.648Z,890.00
2019-02-17T04:53:53.294Z,890.00
2019-02-17T04:54:53.938Z,890.00
2019-02-17T04:55:54.554Z,890.00
2019-02-17T04:56:55.238Z,890.00
2019-02-17T04:57:56.066Z,892.00
2019-02-17T04:58:56.666Z,890.00
2019-02-17T04:59:57.360Z,890.00
2019-02-17T05:00:57.967Z,890.00
2019-02-17T05:01:58.761Z,889.00
2019-02-17T05:02:59.515Z,889.00
2019-02-17T05:04:00.389Z,889.00
2019-02-17T05:05:00.439Z,889.00
2019-02-17T05:06:00.090Z,889.00
2019-02-17T05:07:00.218Z,891.00
2019-02-17T05:08:01.863Z,893.00
2019-02-17T05:09:02.501Z,893.00
2019-02-17T05:10:03.286Z,890.00
2019-02-17T05:11:04.073Z,889.00
2019-02-17T05:12:04.676Z,890.00
2019-02-17T05:13:05.360Z,890.00
2019-02-17T05:14:06.076Z,890.00
2019-02-17T05:15:06.664Z,889.00
2019-02-17T05:16:07.495Z,889.00
2019-02-17T05:17:08.156Z,889.00
2019-02-17T05:18:08.834Z,889.00
2019-02-17T05:19:09.504Z,889.00
2019-02-17T05:20:10.297Z,889.00
2019-02-17T05:21:10.359Z,889.00
2019-02-17T05:22:10.894Z,888.00
2019-02-17T05:23:11.499Z,889.00
2019-02-17T05:24:12.293Z,876.00
2019-02-17T05:25:13.032Z,880.00
2019-02-17T05:26:13.739Z,880.00
2019-02-17T05:27:14.325Z,889.00
2019-02-17T05:28:14.994Z,889.00
2019-02-17T05:29:15.947Z,888.00
2019-02-17T05:29:24.978Z,888.00
2019-02-17T05:30:26.610Z,888.00
2019-02-17T05:31:27.160Z,889.00
2019-02-17T05:32:27.757Z,888.00
2019-02-17T05:33:28.278Z,888.00
2019-02-17T05:34:28.650Z,888.00
2019-02-17T05:35:29.188Z,888.00
2019-02-17T05:36:29.711Z,889.00
2019-02-17T05:37:30.326Z,889.00
2019-02-17T05:38:31.092Z,889.00
2019-02-17T05:39:31.771Z,889.00
2019-02-17T05:40:32.439Z,889.00
2019-02-17T05:41:33.309Z,889.00
2019-02-17T05:42:33.908Z,889.00
2019-02-17T05:43:33.930Z,890.00
2019-02-17T05:44:34.791Z,893.00
2019-02-17T05:45:35.326Z,892.00
2019-02-17T05:46:35.472Z,892.00
2019-02-17T05:47:36.360Z,890.00
2019-02-17T05:48:36.938Z,890.00
2019-02-17T05:49:37.507Z,890.00
2019-02-17T05:50:38.159Z,889.00
2019-02-17T05:51:38.733Z,890.00
2019-02-17T05:52:39.504Z,889.00
2019-02-17T05:53:40.096Z,889.00
2019-02-17T05:54:40.699Z,889.00
2019-02-17T05:55:41.265Z,889.00
2019-02-17T05:56:42.144Z,889.00
2019-02-17T05:57:42.677Z,889.00
2019-02-17T05:58:43.522Z,889.00
2019-02-17T05:59:44.044Z,889.00
2019-02-17T06:00:44.977Z,889.00
2019-02-17T06:01:45.522Z,889.00
2019-02-17T06:02:45.557Z,889.00
2019-02-17T06:03:45.816Z,880.00
2019-02-17T06:04:46.163Z,880.00
2019-02-17T06:05:46.848Z,889.00
2019-02-17T06:06:47.541Z,889.00
2019-02-17T06:07:48.092Z,889.00
2019-02-17T06:08:48.631Z,889.00
2019-02-17T06:09:48.685Z,889.00
2019-02-17T06:10:49.257Z,889.00
2019-02-17T06:11:50.118Z,890.00
2019-02-17T06:12:51.045Z,890.00
2019-02-17T06:13:51.691Z,890.00
2019-02-17T06:14:51.718Z,890.00
2019-02-17T06:15:00.733Z,890.00
2019-02-17T06:16:01.659Z,890.00
2019-02-17T06:17:03.338Z,890.00
2019-02-17T06:18:03.889Z,890.00
2019-02-17T06:19:04.748Z,889.00
2019-02-17T06:20:05.279Z,889.00
2019-02-17T06:21:06.017Z,889.00
2019-02-17T06:22:06.308Z,889.00
2019-02-17T06:23:06.894Z,889.00
2019-02-17T06:24:07.598Z,889.00
2019-02-17T06:25:07.699Z,889.00
2019-02-17T06:26:08.485Z,893.00
2019-02-17T06:27:09.462Z,890.00
2019-02-17T06:28:09.962Z,890.00
2019-02-17T06:29:10.462Z,890.00
2019-02-17T06:30:11.113Z,890.00
2019-02-17T06:31:14.739Z,890.00
2019-02-17T06:32:11.601Z,890.00
2019-02-17T06:33:13.508Z,891.00
2019-02-17T06:34:14.217Z,890.00
2019-02-17T06:35:14.899Z,890.00
2019-02-17T06:36:14.244Z,892.00
2019-02-17T06:37:15.923Z,893.00
2019-02-17T06:38:16.796Z,893.00
2019-02-17T06:39:17.517Z,891.00
2019-02-17T06:40:18.502Z,890.00
2019-02-17T06:41:19.366Z,890.00
2019-02-17T06:42:20.221Z,890.00
2019-02-17T06:43:20.763Z,890.00
2019-02-17T06:44:21.324Z,889.00
2019-02-17T06:45:21.944Z,890.00
2019-02-17T06:46:22.500Z,893.00
2019-02-17T06:47:22.991Z,892.00
2019-02-17T06:48:23.540Z,890.00
2019-02-17T06:49:24.069Z,890.00
2019-02-17T06:50:25.030Z,890.00
2019-02-17T06:51:25.615Z,890.00
2019-02-17T06:52:25.659Z,890.00
2019-02-17T06:53:26.281Z,890.00
2019-02-17T06:54:27.015Z,890.00
2019-02-17T06:55:27.138Z,890.00
2019-02-17T06:56:27.769Z,889.00
2019-02-17T06:57:28.742Z,889.00
2019-02-17T06:58:29.372Z,889.00
2019-02-17T06:59:30.350Z,889.00
2019-02-17T07:00:30.844Z,889.00
2019-02-17T07:01:31.530Z,889.00
2019-02-17T07:01:40.585Z,889.00
2019-02-17T07:02:42.259Z,889.00
2019-02-17T07:03:42.945Z,889.00
2019-02-17T07:04:42.743Z,889.00
2019-02-17T07:05:43.268Z,890.00
2019-02-17T07:06:44.870Z,890.00
2019-02-17T07:07:45.885Z,889.00
2019-02-17T07:08:46.545Z,889.00
2019-02-17T07:09:47.453Z,889.00
2019-02-17T07:10:48.426Z,889.00
2019-02-17T07:11:49.241Z,889.00
2019-02-17T07:12:49.237Z,889.00
2019-02-17T07:13:49.654Z,889.00
2019-02-17T07:14:49.990Z,889.00
2019-02-17T07:15:50.678Z,889.00
2019-02-17T07:16:51.520Z,889.00
2019-02-17T07:17:52.127Z,889.00
2019-02-17T07:18:52.818Z,889.00
2019-02-17T07:19:53.471Z,889.00
2019-02-17T07:20:54.034Z,889.00
2019-02-17T07:21:54.700Z,889.00
2019-02-17T07:22:55.302Z,889.00
2019-02-17T07:23:55.451Z,889.00
2019-02-17T07:24:55.552Z,889.00
2019-02-17T07:25:55.735Z,889.00
2019-02-17T07:26:56.641Z,889.00
2019-02-17T07:27:57.244Z,889.00
2019-02-17T07:28:57.860Z,889.00
2019-02-17T07:29:58.380Z,889.00
2019-02-17T07:30:58.994Z,889.00
2019-02-17T07:31:59.782Z,889.00
2019-02-17T07:33:00.656Z,889.00
2019-02-17T07:34:01.327Z,890.00
2019-02-17T07:35:02.071Z,889.00
2019-02-17T07:36:02.646Z,890.00
2019-02-17T07:37:03.374Z,889.00
2019-02-17T07:38:04.155Z,889.00
2019-02-17T07:39:04.839Z,889.00
2019-02-17T07:40:05.575Z,889.00
2019-02-17T07:41:05.683Z,889.00
2019-02-17T07:42:06.283Z,889.00
2019-02-17T07:43:06.891Z,889.00
2019-02-17T07:44:07.529Z,889.00
2019-02-17T07:45:08.330Z,889.00
2019-02-17T07:46:09.265Z,889.00
2019-02-17T07:46:19.318Z,889.00
2019-02-17T07:47:20.865Z,889.00
2019-02-17T07:48:21.514Z,890.00
2019-02-17T07:49:22.311Z,893.00
2019-02-17T07:50:23.156Z,890.00
2019-02-17T07:51:23.281Z,890.00
2019-02-17T07:52:23.858Z,891.00
2019-02-17T07:53:24.420Z,890.00
2019-02-17T07:54:24.460Z,890.00
2019-02-17T07:55:25.074Z,893.00
2019-02-17T07:56:25.796Z,890.00
2019-02-17T07:57:25.308Z,890.00
2019-02-17T07:58:27.152Z,894.00
2019-02-17T07:59:27.747Z,892.00
2019-02-17T08:00:28.423Z,891.00
2019-02-17T08:01:29.076Z,893.00
2019-02-17T08:02:29.066Z,891.00
2019-02-17T08:03:29.706Z,893.00
2019-02-17T08:04:30.599Z,884.00
2019-02-17T08:05:31.362Z,890.00
2019-02-17T08:06:32.030Z,890.00
2019-02-17T08:07:32.082Z,889.00
2019-02-17T08:08:32.749Z,889.00
2019-02-17T08:09:33.320Z,890.00
2019-02-17T08:10:34.246Z,890.00
2019-02-17T08:11:35.119Z,890.00
2019-02-17T08:12:35.162Z,892.00
2019-02-17T08:13:35.980Z,892.00
2019-02-17T08:14:36.626Z,890.00
2019-02-17T08:15:37.205Z,893.00
2019-02-17T08:16:37.830Z,893.00
2019-02-17T08:17:38.523Z,894.00
2019-02-17T08:18:39.290Z,894.00
2019-02-17T08:19:40.107Z,893.00
2019-02-17T08:20:40.872Z,894.00
2019-02-17T08:21:41.491Z,886.00
2019-02-17T08:22:42.282Z,894.00
2019-02-17T08:23:43.071Z,893.00
2019-02-17T08:24:43.976Z,893.00
2019-02-17T08:25:44.505Z,895.00
2019-02-17T08:26:45.140Z,895.00
2019-02-17T08:27:45.841Z,894.00
2019-02-17T08:28:46.578Z,893.00
2019-02-17T08:29:47.168Z,893.00
2019-02-17T08:30:47.842Z,893.00
2019-02-17T08:30:56.935Z,893.00
2019-02-17T08:31:58.851Z,893.00
2019-02-17T08:32:59.475Z,892.00
2019-02-17T08:33:59.254Z,892.00
2019-02-17T08:35:00.389Z,890.00
2019-02-17T08:35:59.359Z,893.00
2019-02-17T08:37:00.994Z,892.00
2019-02-17T08:38:03.381Z,890.00
2019-02-17T08:39:01.338Z,890.00
2019-02-17T08:40:03.042Z,890.00
2019-02-17T08:41:03.584Z,890.00
2019-02-17T08:42:04.115Z,892.00
2019-02-17T08:43:04.964Z,893.00
2019-02-17T08:44:05.695Z,886.00
2019-02-17T08:45:06.369Z,893.00
2019-02-17T08:46:06.873Z,893.00
2019-02-17T08:47:07.180Z,892.00
2019-02-17T08:48:07.785Z,891.00
2019-02-17T08:49:08.480Z,890.00
2019-02-17T08:50:09.122Z,890.00
2019-02-17T08:51:10.043Z,890.00
2019-02-17T08:52:10.688Z,890.00
2019-02-17T08:53:11.324Z,891.00
2019-02-17T08:54:12.143Z,890.00
2019-02-17T08:55:12.861Z,890.00
2019-02-17T08:56:13.636Z,889.00
2019-02-17T08:57:14.333Z,889.00
2019-02-17T08:58:15.330Z,889.00
2019-02-17T08:59:16.281Z,889.00
2019-02-17T09:00:16.439Z,889.00
2019-02-17T09:01:17.199Z,889.00
2019-02-17T09:02:17.855Z,888.00
2019-02-17T09:03:18.457Z,888.00
2019-02-17T09:04:19.160Z,888.00
2019-02-17T09:05:19.921Z,888.00
2019-02-17T09:06:19.011Z,886.00
2019-02-17T09:07:20.574Z,888.00
2019-02-17T09:08:21.371Z,888.00
2019-02-17T09:09:21.662Z,888.00
2019-02-17T09:10:22.172Z,888.00
2019-02-17T09:11:22.371Z,888.00
2019-02-17T09:12:22.952Z,888.00
2019-02-17T09:13:23.685Z,888.00
2019-02-17T09:14:24.355Z,886.00
2019-02-17T09:15:25.197Z,888.00
2019-02-17T09:16:25.486Z,886.00
2019-02-17T09:17:26.017Z,885.00
2019-02-17T09:18:26.676Z,885.00
2019-02-17T09:19:27.063Z,888.00
2019-02-17T09:19:36.096Z,888.00
2019-02-17T09:20:37.254Z,886.00
2019-02-17T09:21:38.159Z,886.00
2019-02-17T09:22:38.860Z,886.00
2019-02-17T09:23:39.392Z,880.00
2019-02-17T09:24:40.113Z,886.00
2019-02-17T09:25:40.722Z,886.00
2019-02-17T09:26:41.282Z,885.00
2019-02-17T09:27:41.774Z,885.00
2019-02-17T09:28:42.305Z,886.00
2019-02-17T09:29:42.846Z,886.00
2019-02-17T09:30:43.378Z,888.00
2019-02-17T09:31:43.986Z,886.00
2019-02-17T09:32:44.647Z,886.00
2019-02-17T09:33:43.730Z,888.00
2019-02-17T09:34:45.364Z,888.00
2019-02-17T09:35:45.952Z,888.00
2019-02-17T09:36:46.627Z,888.00
2019-02-17T09:37:47.326Z,886.00
2019-02-17T09:38:48.026Z,886.00
2019-02-17T09:39:48.592Z,886.00
2019-02-17T09:40:48.660Z,885.00
2019-02-17T09:41:49.552Z,885.00
2019-02-17T09:42:49.252Z,885.00
2019-02-17T09:43:51.060Z,886.00
2019-02-17T09:44:51.742Z,888.00
2019-02-17T09:45:52.442Z,888.00
2019-02-17T09:46:52.504Z,888.00
2019-02-17T09:47:53.052Z,886.00
2019-02-17T09:48:55.756Z,888.00
2019-02-17T09:49:53.050Z,889.00
2019-02-17T09:50:54.993Z,889.00
2019-02-17T09:51:55.108Z,889.00
2019-02-17T09:52:56.047Z,888.00
2019-02-17T09:53:56.789Z,889.00
2019-02-17T09:54:57.709Z,889.00
2019-02-17T09:55:58.531Z,893.00
2019-02-17T09:57:00.186Z,890.00
2019-02-17T09:58:00.039Z,889.00
2019-02-17T09:59:00.957Z,889.00
2019-02-17T10:00:01.590Z,889.00
2019-02-17T10:01:02.236Z,888.00
2019-02-17T10:02:02.956Z,886.00
2019-02-17T10:03:03.691Z,888.00
2019-02-17T10:04:03.833Z,886.00
2019-02-17T10:05:04.331Z,884.00
2019-02-17T10:06:05.128Z,878.00
2019-02-17T10:07:05.989Z,884.00
2019-02-17T10:07:16.792Z,884.00
2019-02-17T10:08:18.482Z,879.00
2019-02-17T10:09:18.958Z,884.00
2019-02-17T10:10:19.484Z,877.00
2019-02-17T10:11:20.361Z,880.00
2019-02-17T10:12:21.023Z,879.00
2019-02-17T10:13:21.697Z,880.00
2019-02-17T10:14:22.395Z,879.00
2019-02-17T10:15:23.068Z,879.00
2019-02-17T10:16:23.862Z,878.00
2019-02-17T10:17:24.471Z,877.00
2019-02-17T10:18:25.041Z,878.00
2019-02-17T10:19:25.606Z,878.00
2019-02-17T10:20:25.157Z,877.00
2019-02-17T10:21:26.825Z,876.00
2019-02-17T10:22:27.060Z,877.00
2019-02-17T10:23:27.926Z,878.00
2019-02-17T10:24:28.889Z,874.00
2019-02-17T10:25:28.888Z,878.00
2019-02-17T10:26:29.508Z,878.00
2019-02-17T10:27:30.245Z,876.00
2019-02-17T10:28:30.248Z,868.00
2019-02-17T10:29:31.087Z,874.00
2019-02-17T10:30:31.814Z,873.00
2019-02-17T10:31:32.345Z,872.00
2019-02-17T10:32:38.345Z,870.00
2019-02-17T10:33:32.213Z,870.00
2019-02-17T10:34:33.968Z,870.00
2019-02-17T10:35:33.868Z,878.00
2019-02-17T10:36:34.735Z,880.00
2019-02-17T10:37:35.459Z,877.00
2019-02-17T10:38:36.231Z,874.00
2019-02-17T10:39:36.374Z,873.00
2019-02-17T10:40:36.908Z,876.00
2019-02-17T10:41:37.359Z,874.00
2019-02-17T10:42:39.128Z,866.00
2019-02-17T10:43:39.317Z,866.00
2019-02-17T10:44:39.799Z,871.00
2019-02-17T10:45:40.663Z,870.00
2019-02-17T10:46:41.351Z,874.00
2019-02-17T10:47:42.323Z,873.00
2019-02-17T10:48:43.107Z,871.00
2019-02-17T10:49:43.135Z,870.00
2019-02-17T10:50:43.909Z,873.00
2019-02-17T10:51:44.621Z,873.00
2019-02-17T10:52:45.506Z,871.00
2019-02-17T10:53:46.478Z,871.00
2019-02-17T10:54:47.192Z,873.00
2019-02-17T10:55:48.000Z,876.00
2019-02-17T10:56:47.397Z,876.00
2019-02-17T10:57:49.248Z,876.00
2019-02-17T10:58:50.025Z,876.00
2019-02-17T10:59:50.931Z,877.00
2019-02-17T11:00:51.866Z,876.00
2019-02-17T11:01:02.440Z,876.00
2019-02-17T11:02:03.891Z,877.00
2019-02-17T11:03:04.444Z,878.00
2019-02-17T11:04:05.237Z,878.00
2019-02-17T11:05:05.516Z,876.00
2019-02-17T11:06:06.226Z,876.00
2019-02-17T11:07:06.986Z,878.00
2019-02-17T11:08:07.461Z,878.00
2019-02-17T11:09:08.178Z,876.00
2019-02-17T11:10:09.013Z,876.00
2019-02-17T11:11:09.703Z,876.00
2019-02-17T11:12:09.277Z,874.00
2019-02-17T11:13:11.212Z,873.00
2019-02-17T11:14:17.821Z,873.00
2019-02-17T11:15:10.407Z,876.00
2019-02-17T11:16:11.970Z,876.00
2019-02-17T11:17:12.565Z,876.00
2019-02-17T11:18:13.413Z,877.00
2019-02-17T11:19:13.939Z,878.00
2019-02-17T11:20:14.597Z,880.00
2019-02-17T11:21:14.876Z,870.00
2019-02-17T11:22:22.885Z,869.00
2019-02-17T11:23:14.736Z,877.00
2019-02-17T11:24:16.018Z,880.00
2019-02-17T11:25:16.809Z,877.00
2019-02-17T11:26:17.416Z,873.00
2019-02-17T11:27:17.551Z,874.00
2019-02-17T11:28:18.137Z,878.00
2019-02-17T11:29:18.899Z,879.00
2019-02-17T11:30:19.409Z,878.00
2019-02-17T11:31:20.112Z,878.00
2019-02-17T11:32:20.711Z,874.00
2019-02-17T11:33:21.524Z,873.00
2019-02-17T11:34:22.165Z,870.00
2019-02-17T11:35:23.063Z,871.00
2019-02-17T11:36:23.611Z,871.00
2019-02-17T11:37:24.322Z,870.00
2019-02-17T11:38:24.966Z,869.00
2019-02-17T11:39:25.796Z,870.00
2019-02-17T11:40:26.374Z,869.00
2019-02-17T11:41:27.065Z,868.00
2019-02-17T11:42:27.721Z,867.00
2019-02-17T11:43:28.467Z,866.00
2019-02-17T11:44:29.303Z,867.00
2019-02-17T11:45:29.852Z,866.00
2019-02-17T11:46:30.035Z,865.00
2019-02-17T11:47:30.624Z,865.00
2019-02-17T11:47:39.659Z,865.00
2019-02-17T11:48:41.176Z,865.00
2019-02-17T11:49:41.845Z,867.00
2019-02-17T11:50:42.723Z,867.00
2019-02-17T11:51:43.725Z,866.00
2019-02-17T11:52:44.522Z,865.00
2019-02-17T11:53:45.227Z,861.00
2019-02-17T11:54:47.620Z,866.00
2019-02-17T11:55:45.751Z,868.00
2019-02-17T11:56:47.390Z,867.00
2019-02-17T11:57:47.427Z,866.00
2019-02-17T11:58:48.275Z,865.00
2019-02-17T11:59:49.134Z,857.00
2019-02-17T12:00:48.998Z,856.00
2019-02-17T12:01:50.757Z,855.00
2019-02-17T12:02:51.446Z,861.00
2019-02-17T12:03:51.534Z,860.00
2019-02-17T12:04:52.064Z,859.00
2019-02-17T12:05:52.584Z,862.00
2019-02-17T12:06:53.200Z,868.00
2019-02-17T12:07:53.756Z,866.00
2019-02-17T12:08:54.416Z,861.00
2019-02-17T12:09:55.249Z,860.00
2019-02-17T12:10:56.151Z,855.00
2019-02-17T12:11:56.962Z,855.00
2019-02-17T12:12:57.649Z,859.00
2019-02-17T12:13:58.329Z,866.00
2019-02-17T12:14:59.099Z,856.00
2019-02-17T12:15:59.735Z,861.00
2019-02-17T12:17:00.431Z,861.00
2019-02-17T12:18:00.663Z,861.00
2019-02-17T12:18:59.732Z,860.00
2019-02-17T12:20:01.411Z,860.00
2019-02-17T12:21:01.868Z,860.00
2019-02-17T12:22:02.704Z,860.00
2019-02-17T12:23:03.410Z,859.00